createdAt,value
2023-02-11T00:00:42.046Z,33.13
2023-02-11T00:03:10.514Z,35.80
2023-02-11T00:05:38.740Z,39.60
2023-02-11T00:08:06.815Z,38.80
2023-02-11T00:10:34.871Z,37.60
2023-02-11T00:13:03.070Z,33.13
2023-02-11T00:15:32.463Z,36.80
2023-02-11T00:18:00.435Z,42.10
2023-02-11T00:20:28.478Z,38.00
2023-02-11T00:22:56.508Z,40.67
2023-02-11T00:25:24.535Z,36.87
2023-02-11T00:27:52.548Z,35.37
2023-02-11T00:30:20.787Z,40.00
2023-02-11T00:32:50.167Z,33.97
2023-02-11T00:35:18.388Z,39.23
2023-02-11T00:37:46.420Z,38.00
2023-02-11T00:40:16.010Z,35.63
2023-02-11T00:42:44.086Z,43.10
2023-02-11T00:45:12.264Z,40.50
2023-02-11T00:47:40.262Z,44.27
2023-02-11T00:50:10.225Z,46.97
2023-02-11T00:52:38.260Z,36.43
2023-02-11T00:55:06.945Z,42.70
2023-02-11T00:57:34.969Z,37.83
2023-02-11T01:00:03.127Z,37.77
2023-02-11T01:02:31.150Z,36.10
2023-02-11T01:04:59.754Z,44.60
2023-02-11T01:07:29.852Z,45.20
2023-02-11T01:09:58.114Z,40.93
2023-02-11T01:12:26.545Z,39.83
2023-02-11T01:14:54.568Z,41.27
2023-02-11T01:17:22.589Z,46.37
2023-02-11T01:19:51.296Z,42.63
2023-02-11T01:22:19.751Z,41.87
2023-02-11T01:24:49.907Z,43.97
2023-02-11T01:27:17.904Z,45.60
2023-02-11T01:29:45.991Z,45.40
2023-02-11T01:32:14.489Z,39.77
2023-02-11T01:34:42.565Z,39.17
2023-02-11T01:37:10.591Z,43.37
2023-02-11T01:39:38.668Z,40.63
2023-02-11T01:42:08.474Z,48.13
2023-02-11T01:44:39.095Z,44.57
2023-02-11T01:47:07.809Z,38.77
2023-02-11T01:49:39.010Z,41.20
2023-02-11T01:52:11.723Z,42.63
2023-02-11T01:55:00.667Z,45.07
2023-02-11T01:57:35.274Z,42.00
2023-02-11T02:00:11.248Z,37.97
2023-02-11T02:02:51.726Z,44.63
2023-02-11T02:05:27.923Z,41.07
2023-02-11T02:08:04.396Z,42.90
2023-02-11T02:10:35.326Z,37.23
2023-02-11T02:13:05.267Z,37.33
2023-02-11T02:15:35.358Z,37.67
2023-02-11T02:18:13.925Z,40.07
2023-02-11T02:21:25.907Z,42.53
2023-02-11T02:24:32.578Z,37.97
2023-02-11T02:27:20.257Z,37.03
2023-02-11T02:30:21.447Z,39.37
2023-02-11T02:33:20.517Z,43.27
2023-02-11T02:35:59.784Z,37.87
2023-02-11T02:38:32.795Z,37.37
2023-02-11T02:41:05.440Z,41.27
2023-02-11T02:43:35.959Z,37.33
2023-02-11T02:46:16.706Z,36.97
2023-02-11T02:48:47.422Z,33.73
2023-02-11T02:51:42.967Z,37.90
2023-02-11T02:54:45.059Z,41.50
2023-02-11T02:57:26.046Z,38.37
2023-02-11T03:00:25.377Z,37.93
2023-02-11T03:03:09.001Z,33.03
2023-02-11T03:05:48.084Z,35.07
2023-02-11T03:08:24.779Z,32.07
2023-02-11T03:10:55.250Z,40.63
2023-02-11T03:13:28.997Z,34.00
2023-02-11T03:16:00.926Z,31.17
2023-02-11T03:18:32.331Z,32.00
2023-02-11T03:21:03.516Z,32.87
2023-02-11T03:23:37.475Z,36.63
2023-02-11T03:26:12.350Z,31.37
2023-02-11T03:28:45.332Z,33.67
2023-02-11T03:31:19.528Z,33.90
2023-02-11T03:33:54.501Z,32.63
2023-02-11T03:36:28.517Z,31.40
2023-02-11T03:38:58.941Z,30.43
2023-02-11T03:41:27.137Z,32.07
2023-02-11T03:43:57.672Z,35.70
2023-02-11T03:46:29.991Z,28.20
2023-02-11T03:49:03.582Z,27.60
2023-02-11T03:51:34.479Z,34.93
2023-02-11T03:54:06.802Z,30.07
2023-02-11T03:56:42.291Z,29.20
2023-02-11T03:59:10.343Z,26.70
2023-02-11T04:01:38.352Z,30.83
2023-02-11T04:04:06.797Z,31.20
2023-02-11T04:06:36.185Z,28.50
2023-02-11T04:09:04.753Z,32.00
2023-02-11T04:11:32.817Z,30.60
2023-02-11T04:14:00.952Z,31.33
2023-02-11T04:16:30.109Z,28.47
2023-02-11T04:18:58.412Z,29.73
2023-02-11T04:21:26.474Z,34.17
2023-02-11T04:23:55.851Z,29.70
2023-02-11T04:26:23.848Z,28.77
2023-02-11T04:28:51.839Z,31.40
2023-02-11T04:31:19.935Z,33.83
2023-02-11T04:33:48.053Z,28.23
2023-02-11T04:36:16.028Z,29.40
2023-02-11T04:38:44.044Z,32.83
2023-02-11T04:41:13.399Z,28.03
2023-02-11T04:43:41.420Z,31.87
2023-02-11T04:46:09.433Z,28.80
2023-02-11T04:48:37.473Z,31.67
2023-02-11T04:51:05.856Z,30.73
2023-02-11T04:53:33.881Z,30.37
2023-02-11T04:56:01.929Z,31.50
2023-02-11T04:58:31.331Z,25.43
2023-02-11T05:01:07.126Z,33.57
2023-02-11T05:03:35.492Z,29.43
2023-02-11T05:06:03.987Z,29.07
2023-02-11T05:08:32.040Z,31.80
2023-02-11T05:11:02.071Z,31.23
2023-02-11T05:13:34.109Z,29.70
2023-02-11T05:16:02.194Z,33.43
2023-02-11T05:18:30.200Z,25.33
2023-02-11T05:20:58.462Z,26.63
2023-02-11T05:23:26.499Z,27.80
2023-02-11T05:25:54.550Z,24.90
2023-02-11T05:28:22.620Z,25.03
2023-02-11T05:30:52.092Z,25.80
2023-02-11T05:33:20.132Z,25.37
2023-02-11T05:35:48.284Z,26.83
2023-02-11T05:38:16.421Z,26.43
2023-02-11T05:40:44.615Z,25.27
2023-02-11T05:43:12.635Z,28.57
2023-02-11T05:45:40.644Z,27.07
2023-02-11T05:48:10.022Z,28.20
2023-02-11T05:50:38.034Z,28.47
2023-02-11T05:53:06.812Z,32.00
2023-02-11T05:55:35.437Z,27.50
2023-02-11T05:58:03.448Z,24.40
2023-02-11T06:00:31.475Z,25.00
2023-02-11T06:02:59.509Z,26.57
2023-02-11T06:05:28.940Z,27.20
2023-02-11T06:07:56.932Z,27.50
2023-02-11T06:10:24.983Z,30.57
2023-02-11T06:12:53.028Z,25.30
2023-02-11T06:15:21.285Z,30.13
2023-02-11T06:17:49.308Z,24.07
2023-02-11T06:20:17.560Z,28.17
2023-02-11T06:22:47.221Z,23.37
2023-02-11T06:25:15.838Z,25.00
2023-02-11T06:27:43.853Z,25.70
2023-02-11T06:30:12.928Z,26.67
2023-02-11T06:32:45.765Z,21.23
2023-02-11T06:35:14.920Z,27.30
2023-02-11T06:37:43.550Z,23.20
2023-02-11T06:40:13.591Z,26.87
2023-02-11T06:42:41.779Z,23.93
2023-02-11T06:45:10.917Z,21.90
2023-02-11T06:47:39.095Z,29.80
2023-02-11T06:50:09.992Z,24.77
2023-02-11T06:52:38.024Z,26.17
2023-02-11T06:55:06.688Z,28.27
2023-02-11T06:57:36.037Z,28.60
2023-02-11T07:00:05.577Z,28.83
2023-02-11T07:02:33.955Z,30.43
2023-02-11T07:05:02.047Z,27.30
2023-02-11T07:07:32.400Z,23.13
2023-02-11T07:10:03.062Z,29.10
2023-02-11T07:12:31.152Z,32.30
2023-02-11T07:15:00.489Z,32.73
2023-02-11T07:17:28.551Z,30.33
2023-02-11T07:19:56.572Z,29.93
2023-02-11T07:22:24.656Z,30.80
2023-02-11T07:24:52.661Z,31.60
2023-02-11T07:27:20.781Z,27.57
2023-02-11T07:29:48.810Z,25.63
2023-02-11T07:32:18.249Z,29.20
2023-02-11T07:34:48.001Z,27.90
2023-02-11T07:37:16.368Z,35.23
2023-02-11T07:39:44.424Z,30.77
2023-02-11T07:42:12.572Z,31.50
2023-02-11T07:44:40.610Z,30.77
2023-02-11T07:47:08.687Z,27.10
2023-02-11T07:49:38.115Z,31.47
2023-02-11T07:52:06.359Z,32.10
2023-02-11T07:54:34.374Z,31.97
2023-02-11T07:57:02.391Z,33.07
2023-02-11T07:59:30.396Z,32.90
2023-02-11T08:01:58.405Z,33.60
2023-02-11T08:04:26.489Z,39.83
2023-02-11T08:06:58.982Z,37.80
2023-02-11T08:09:27.139Z,35.70
2023-02-11T08:11:55.149Z,32.77
2023-02-11T08:14:25.140Z,34.97
2023-02-11T08:16:53.251Z,33.60
2023-02-11T08:19:21.411Z,30.57
2023-02-11T08:21:49.478Z,34.43
2023-02-11T08:24:18.860Z,29.77
2023-02-11T08:26:46.905Z,30.80
2023-02-11T08:29:17.237Z,31.13
2023-02-11T08:31:47.866Z,31.83
2023-02-11T08:34:18.986Z,30.73
2023-02-11T08:36:48.252Z,29.47
2023-02-11T08:39:20.980Z,33.17
2023-02-11T08:41:50.378Z,32.80
2023-02-11T08:44:18.808Z,28.30
2023-02-11T08:46:46.962Z,31.47
2023-02-11T08:49:15.649Z,27.60
2023-02-11T08:51:44.060Z,28.10
2023-02-11T08:54:12.874Z,28.00
2023-02-11T08:56:42.670Z,27.93
2023-02-11T08:59:14.034Z,29.20
2023-02-11T09:01:42.154Z,27.40
2023-02-11T09:04:11.427Z,29.93
2023-02-11T09:06:39.626Z,31.07
2023-02-11T09:09:07.973Z,30.63
2023-02-11T09:11:37.679Z,31.47
2023-02-11T09:14:07.304Z,32.50
2023-02-11T09:16:37.296Z,26.73
2023-02-11T09:19:06.932Z,25.80
2023-02-11T09:21:34.954Z,29.77
2023-02-11T09:24:03.043Z,31.53
2023-02-11T09:26:34.800Z,37.17
2023-02-11T09:29:03.792Z,27.53
2023-02-11T09:31:34.662Z,23.87
2023-02-11T09:34:04.550Z,31.63
2023-02-11T09:36:34.898Z,28.23
2023-02-11T09:39:03.730Z,30.03
2023-02-11T09:41:42.496Z,31.87
2023-02-11T09:44:19.680Z,28.10
2023-02-11T09:46:55.643Z,29.10
2023-02-11T09:49:30.489Z,35.07
2023-02-11T09:52:06.048Z,32.87
2023-02-11T09:54:41.460Z,31.43
2023-02-11T09:57:23.008Z,31.03
2023-02-11T09:59:56.889Z,25.00
2023-02-11T10:02:35.326Z,28.07
2023-02-11T10:05:26.018Z,30.73
2023-02-11T10:08:02.273Z,33.33
2023-02-11T10:10:41.901Z,30.63
2023-02-11T10:13:33.519Z,26.17
2023-02-11T10:16:10.708Z,33.93
2023-02-11T10:18:52.247Z,31.67
2023-02-11T10:21:32.446Z,30.17
2023-02-11T10:24:05.394Z,24.97
2023-02-11T10:26:35.320Z,28.43
2023-02-11T10:29:23.464Z,27.23
2023-02-11T10:31:52.879Z,26.57
2023-02-11T10:34:22.264Z,22.87
2023-02-11T10:36:50.327Z,30.10
2023-02-11T10:39:20.528Z,27.60
2023-02-11T10:41:51.399Z,26.47
2023-02-11T10:44:28.373Z,28.63
2023-02-11T10:46:57.461Z,27.83
2023-02-11T10:49:38.684Z,24.30
2023-02-11T10:52:25.424Z,25.67
2023-02-11T10:55:02.871Z,23.73
2023-02-11T10:57:37.924Z,27.67
2023-02-11T11:00:21.483Z,24.07
2023-02-11T11:02:56.343Z,28.47
2023-02-11T11:05:32.392Z,26.10
2023-02-11T11:08:02.902Z,25.00
2023-02-11T11:10:37.122Z,25.53
2023-02-11T11:13:24.079Z,24.50
2023-02-11T11:16:09.627Z,24.10
2023-02-11T11:18:37.725Z,29.83
2023-02-11T11:21:08.624Z,21.20
2023-02-11T11:23:38.029Z,21.30
2023-02-11T11:26:08.377Z,23.77
2023-02-11T11:28:40.519Z,22.77
2023-02-11T11:31:15.280Z,25.57
2023-02-11T11:33:45.091Z,24.20
2023-02-11T11:36:17.788Z,20.67
2023-02-11T11:38:50.205Z,21.40
2023-02-11T11:41:27.508Z,21.23
2023-02-11T11:44:00.753Z,20.17
2023-02-11T11:46:32.024Z,23.40
2023-02-11T11:49:08.500Z,16.20
2023-02-11T11:51:40.727Z,27.57
2023-02-11T11:54:14.127Z,19.80
2023-02-11T11:56:51.366Z,18.80
2023-02-11T11:59:19.429Z,16.97
2023-02-11T12:02:00.671Z,22.63
2023-02-11T12:04:43.840Z,20.03
2023-02-11T12:07:26.105Z,15.97
2023-02-11T12:10:24.024Z,15.63
2023-02-11T12:13:03.464Z,21.27
2023-02-11T12:15:37.519Z,18.90
2023-02-11T12:18:17.294Z,18.63
2023-02-11T12:21:02.111Z,19.23
2023-02-11T12:23:44.109Z,16.87
2023-02-11T12:26:17.385Z,19.00
2023-02-11T12:29:01.676Z,19.83
2023-02-11T12:31:44.131Z,21.67
2023-02-11T12:34:36.256Z,17.13
2023-02-11T12:37:15.276Z,18.47
2023-02-11T12:39:51.542Z,17.53
2023-02-11T12:42:52.774Z,13.70
2023-02-11T12:45:31.318Z,16.27
2023-02-11T12:48:12.786Z,14.37
2023-02-11T12:50:50.341Z,15.27
2023-02-11T12:53:39.801Z,13.33
2023-02-11T12:56:17.588Z,16.30
2023-02-11T12:58:47.754Z,14.50
2023-02-11T13:01:21.160Z,19.40
2023-02-11T13:03:52.869Z,15.70
2023-02-11T13:06:25.835Z,19.50
2023-02-11T13:08:58.460Z,19.40
2023-02-11T13:11:30.242Z,16.13
2023-02-11T13:14:03.005Z,16.93
2023-02-11T13:16:37.713Z,19.60
2023-02-11T13:19:15.587Z,17.13
2023-02-11T13:22:04.818Z,13.90
2023-02-11T13:24:42.232Z,16.37
2023-02-11T13:27:21.331Z,17.17
2023-02-11T13:30:14.709Z,18.03
2023-02-11T13:33:21.721Z,23.00
2023-02-11T13:36:12.360Z,16.80
2023-02-11T13:38:40.713Z,10.87
2023-02-11T13:41:18.130Z,20.07
2023-02-11T13:44:00.048Z,24.07
2023-02-11T13:46:30.907Z,18.70
2023-02-11T13:48:59.470Z,19.57
2023-02-11T13:51:40.084Z,24.53
2023-02-11T13:54:11.861Z,24.10
2023-02-11T13:56:42.685Z,26.83
2023-02-11T13:59:48.920Z,20.30
2023-02-11T14:02:44.232Z,22.07
2023-02-11T14:05:40.691Z,26.27
2023-02-11T14:08:37.670Z,23.13
2023-02-11T14:11:12.385Z,18.33
2023-02-11T14:14:18.056Z,23.03
2023-02-11T14:17:24.844Z,24.27
2023-02-11T14:19:54.359Z,24.97
2023-02-11T14:22:27.048Z,18.00
2023-02-11T14:24:58.619Z,18.97
2023-02-11T14:27:38.509Z,23.07
2023-02-11T14:30:29.793Z,24.43
2023-02-11T14:33:15.210Z,25.07
2023-02-11T14:35:54.512Z,31.80
2023-02-11T14:38:30.700Z,36.50
2023-02-11T14:41:07.070Z,29.60
2023-02-11T14:43:39.728Z,28.30
2023-02-11T14:46:10.470Z,27.43
2023-02-11T14:48:44.238Z,35.37
2023-02-11T14:51:17.302Z,21.33
2023-02-11T14:53:48.838Z,25.17
2023-02-11T14:56:22.621Z,36.27
2023-02-11T14:58:53.263Z,30.07
2023-02-11T15:01:28.228Z,30.13
2023-02-11T15:03:59.038Z,25.00
2023-02-11T15:06:31.886Z,24.10
2023-02-11T15:09:05.562Z,22.57
2023-02-11T15:11:39.025Z,24.27
2023-02-11T15:14:10.841Z,25.43
2023-02-11T15:16:43.808Z,26.77
2023-02-11T15:19:21.077Z,27.00
2023-02-11T15:21:51.683Z,25.23
2023-02-11T15:24:25.733Z,26.87
2023-02-11T15:26:58.460Z,28.73
2023-02-11T15:29:27.352Z,29.33
2023-02-11T15:32:07.100Z,36.17
2023-02-11T15:34:35.538Z,28.87
2023-02-11T15:37:06.046Z,23.73
2023-02-11T15:39:37.209Z,32.30
2023-02-11T15:42:19.515Z,27.43
2023-02-11T15:44:54.268Z,24.07
2023-02-11T15:47:30.537Z,29.47
2023-02-11T15:49:59.358Z,22.43
2023-02-11T15:52:29.903Z,35.53
2023-02-11T15:55:01.617Z,30.37
2023-02-11T15:57:30.433Z,25.63
2023-02-11T16:00:04.265Z,27.20
2023-02-11T16:02:45.046Z,31.10
2023-02-11T16:05:27.488Z,28.93
2023-02-11T16:07:57.844Z,33.73
2023-02-11T16:10:29.383Z,30.60
2023-02-11T16:13:18.085Z,28.90
2023-02-11T16:15:52.387Z,31.03
2023-02-11T16:18:39.366Z,26.03
2023-02-11T16:21:15.845Z,32.87
2023-02-11T16:23:51.926Z,28.63
2023-02-11T16:26:27.888Z,29.17
2023-02-11T16:29:05.377Z,31.77
2023-02-11T16:31:35.067Z,25.83
2023-02-11T16:34:03.072Z,24.13
2023-02-11T16:36:31.257Z,35.33
2023-02-11T16:39:00.610Z,23.93
2023-02-11T16:41:28.692Z,29.27
2023-02-11T16:43:58.895Z,32.70
2023-02-11T16:46:27.453Z,28.27
2023-02-11T16:48:56.505Z,27.77
2023-02-11T16:51:24.611Z,28.73
2023-02-11T16:53:52.637Z,22.60
2023-02-11T16:56:21.979Z,25.50
2023-02-11T16:58:49.949Z,26.33
2023-02-11T17:01:18.048Z,22.90
2023-02-11T17:03:46.076Z,28.83
2023-02-11T17:06:14.451Z,23.60
2023-02-11T17:08:43.005Z,22.63
2023-02-11T17:11:11.021Z,28.67
2023-02-11T17:13:41.905Z,25.77
2023-02-11T17:16:16.886Z,24.73
2023-02-11T17:18:44.916Z,30.33
2023-02-11T17:21:13.178Z,24.97
2023-02-11T17:23:41.249Z,25.87
2023-02-11T17:26:10.152Z,32.40
2023-02-11T17:28:38.229Z,29.70
2023-02-11T17:31:10.486Z,25.47
2023-02-11T17:33:38.859Z,31.50
2023-02-11T17:36:08.234Z,31.47
2023-02-11T17:38:37.382Z,21.53
2023-02-11T17:41:06.676Z,26.73
2023-02-11T17:43:34.748Z,24.53
2023-02-11T17:46:06.385Z,32.87
2023-02-11T17:48:35.861Z,33.03
2023-02-11T17:51:03.903Z,33.10
2023-02-11T17:53:32.238Z,31.07
2023-02-11T17:56:06.242Z,24.60
2023-02-11T17:58:34.296Z,26.73
2023-02-11T18:01:02.681Z,23.80
2023-02-11T18:03:30.691Z,22.03
2023-02-11T18:06:02.939Z,22.17
2023-02-11T18:08:31.545Z,23.47
2023-02-11T18:10:59.622Z,25.37
2023-02-11T18:13:28.233Z,25.70
2023-02-11T18:15:56.441Z,30.77
2023-02-11T18:18:24.440Z,28.10
2023-02-11T18:20:57.972Z,21.13
2023-02-11T18:23:27.767Z,24.97
2023-02-11T18:25:55.884Z,29.90
2023-02-11T18:28:23.932Z,23.83
2023-02-11T18:30:58.164Z,33.77
2023-02-11T18:33:26.471Z,29.83
2023-02-11T18:35:54.924Z,30.80
2023-02-11T18:38:23.313Z,26.93
2023-02-11T18:40:52.721Z,37.30
2023-02-11T18:43:21.689Z,33.17
2023-02-11T18:45:51.353Z,29.07
2023-02-11T18:48:20.542Z,30.80
2023-02-11T18:50:48.661Z,28.77
2023-02-11T18:53:16.707Z,33.27
2023-02-11T18:55:46.174Z,24.50
2023-02-11T18:58:16.289Z,29.40
2023-02-11T19:00:47.835Z,32.03
2023-02-11T19:03:15.980Z,27.90
2023-02-11T19:05:44.510Z,23.73
2023-02-11T19:08:13.135Z,35.57
2023-02-11T19:10:42.575Z,36.37
2023-02-11T19:13:10.914Z,30.83
2023-02-11T19:15:43.332Z,30.77
2023-02-11T19:18:11.745Z,35.20
2023-02-11T19:20:40.282Z,30.30
2023-02-11T19:23:08.567Z,34.30
2023-02-11T19:25:36.825Z,36.80
2023-02-11T19:28:04.928Z,38.80
2023-02-11T19:30:33.274Z,34.73
2023-02-11T19:33:02.664Z,31.23
2023-02-11T19:35:30.739Z,38.87
2023-02-11T19:37:58.824Z,36.80
2023-02-11T19:40:26.912Z,42.97
2023-02-11T19:42:55.052Z,33.80
2023-02-11T19:45:23.135Z,38.20
2023-02-11T19:47:55.308Z,29.07
2023-02-11T19:50:25.168Z,38.13
2023-02-11T19:52:53.200Z,32.07
2023-02-11T19:55:21.215Z,38.93
2023-02-11T19:57:49.204Z,35.03
2023-02-11T20:00:17.730Z,34.67
2023-02-11T20:02:47.040Z,39.43
2023-02-11T20:05:15.280Z,39.17
2023-02-11T20:07:44.647Z,38.27
2023-02-11T20:10:13.004Z,37.20
2023-02-11T20:12:41.004Z,32.87
2023-02-11T20:15:10.008Z,36.83
2023-02-11T20:17:38.018Z,41.37
2023-02-11T20:20:06.947Z,34.97
2023-02-11T20:22:35.146Z,40.20
2023-02-11T20:25:04.606Z,42.80
2023-02-11T20:27:33.372Z,36.60
2023-02-11T20:30:01.662Z,37.97
2023-02-11T20:32:32.805Z,37.50
2023-02-11T20:35:00.908Z,39.73
2023-02-11T20:37:29.503Z,34.63
2023-02-11T20:39:58.772Z,46.17
2023-02-11T20:42:28.509Z,29.90
2023-02-11T20:44:56.516Z,39.50
2023-02-11T20:47:24.534Z,38.07
2023-02-11T20:49:54.768Z,44.83
2023-02-11T20:52:22.796Z,35.67
2023-02-11T20:54:50.795Z,37.93
2023-02-11T20:57:18.808Z,37.17
2023-02-11T20:59:48.153Z,38.97
2023-02-11T21:02:16.160Z,33.27
2023-02-11T21:04:44.253Z,38.17
2023-02-11T21:07:12.261Z,34.00
2023-02-11T21:09:40.325Z,36.23
2023-02-11T21:12:09.153Z,39.53
2023-02-11T21:14:37.160Z,34.50
2023-02-11T21:17:06.680Z,32.93
2023-02-11T21:19:34.697Z,38.50
2023-02-11T21:22:02.722Z,35.17
2023-02-11T21:24:31.760Z,37.00
2023-02-11T21:27:00.159Z,40.63
2023-02-11T21:29:28.242Z,42.60
2023-02-11T21:31:56.541Z,41.43
2023-02-11T21:34:26.105Z,41.77
2023-02-11T21:36:54.160Z,38.70
2023-02-11T21:39:22.201Z,35.33
2023-02-11T21:41:50.264Z,37.73
2023-02-11T21:44:18.397Z,41.60
2023-02-11T21:46:46.496Z,44.93
2023-02-11T21:49:14.664Z,38.53
2023-02-11T21:51:44.068Z,38.23
2023-02-11T21:54:12.544Z,35.07
2023-02-11T21:56:40.643Z,34.77
2023-02-11T21:59:08.636Z,36.67
2023-02-11T22:01:36.891Z,34.97
2023-02-11T22:04:05.341Z,33.53
2023-02-11T22:06:35.267Z,31.47
2023-02-11T22:09:07.440Z,40.20
2023-02-11T22:11:35.784Z,35.77
2023-02-11T22:14:04.112Z,31.17
2023-02-11T22:16:32.546Z,34.00
2023-02-11T22:19:02.337Z,34.73
2023-02-11T22:21:30.546Z,31.97
2023-02-11T22:23:58.587Z,30.47
2023-02-11T22:26:29.077Z,25.37
2023-02-11T22:28:57.296Z,33.50
2023-02-11T22:31:27.416Z,27.13
2023-02-11T22:33:55.559Z,25.13
2023-02-11T22:36:26.851Z,25.13
2023-02-11T22:38:55.242Z,18.63
2023-02-11T22:41:23.639Z,21.30
2023-02-11T22:43:53.114Z,21.37
2023-02-11T22:46:21.448Z,22.67
2023-02-11T22:48:50.110Z,20.23
2023-02-11T22:51:20.374Z,18.00
2023-02-11T22:53:52.473Z,21.53
2023-02-11T22:56:21.375Z,19.03
2023-02-11T22:58:50.170Z,18.33
2023-02-11T23:01:20.170Z,17.87
2023-02-11T23:03:48.242Z,20.03
2023-02-11T23:06:16.342Z,17.87
2023-02-11T23:08:44.696Z,18.37
2023-02-11T23:11:14.971Z,21.83
2023-02-11T23:13:44.605Z,18.13
2023-02-11T23:16:14.790Z,20.97
2023-02-11T23:18:45.770Z,15.50
2023-02-11T23:21:17.293Z,19.33
2023-02-11T23:23:45.739Z,18.37
2023-02-11T23:26:16.336Z,19.37
2023-02-11T23:28:45.899Z,16.60
2023-02-11T23:31:19.126Z,15.33
2023-02-11T23:33:49.664Z,13.87
2023-02-11T23:36:18.774Z,16.03
2023-02-11T23:38:46.960Z,13.87
2023-02-11T23:41:15.891Z,13.53
2023-02-11T23:43:44.483Z,14.00
2023-02-11T23:46:12.628Z,14.67
2023-02-11T23:48:41.286Z,11.53
2023-02-11T23:51:10.687Z,12.33
2023-02-11T23:53:40.196Z,14.80
2023-02-11T23:56:10.002Z,13.27
2023-02-11T23:58:38.447Z,10.77
